createdAt,value
2023-04-01T00:00:28.553Z,81
2023-04-01T00:00:59.442Z,81
2023-04-01T00:01:31.434Z,81
2023-04-01T00:02:04.071Z,81
2023-04-01T00:02:36.552Z,81
2023-04-01T00:03:07.460Z,81
2023-04-01T00:03:34.782Z,81
2023-04-01T00:03:55.571Z,80
2023-04-01T00:04:27.387Z,81
2023-04-01T00:04:59.371Z,81
2023-04-01T00:05:32.341Z,81
2023-04-01T00:06:04.049Z,81
2023-04-01T00:06:35.362Z,81
2023-04-01T00:07:07.382Z,81
2023-04-01T00:07:34.464Z,81
2023-04-01T00:07:55.425Z,81
2023-04-01T00:08:27.382Z,81
2023-04-01T00:09:00.178Z,81
2023-04-01T00:09:31.390Z,81
2023-04-01T00:10:04.313Z,81
2023-04-01T00:10:35.372Z,81
2023-04-01T00:11:07.377Z,81
2023-04-01T00:11:34.484Z,81
2023-04-01T00:11:55.622Z,81
2023-04-01T00:12:27.362Z,81
2023-04-01T00:12:59.373Z,81
2023-04-01T00:13:31.382Z,81
2023-04-01T00:14:04.019Z,81
2023-04-01T00:14:35.365Z,81
2023-04-01T00:15:07.916Z,81
2023-04-01T00:15:34.611Z,81
2023-04-01T00:15:56.213Z,81
2023-04-01T00:16:27.437Z,81
2023-04-01T00:16:59.405Z,81
2023-04-01T00:17:31.435Z,81
2023-04-01T00:18:04.016Z,81
2023-04-01T00:18:36.214Z,81
2023-04-01T00:19:07.383Z,81
2023-04-01T00:19:34.461Z,81
2023-04-01T00:19:55.398Z,81
2023-04-01T00:20:27.636Z,81
2023-04-01T00:20:59.375Z,81
2023-04-01T00:21:31.369Z,80
2023-04-01T00:22:04.020Z,80
2023-04-01T00:22:35.340Z,80
2023-04-01T00:23:07.373Z,81
2023-04-01T00:23:34.518Z,81
2023-04-01T00:23:55.443Z,81
2023-04-01T00:24:27.371Z,81
2023-04-01T00:25:00.544Z,80
2023-04-01T00:25:31.774Z,81
2023-04-01T00:26:04.060Z,81
2023-04-01T00:26:35.366Z,81
2023-04-01T00:27:07.370Z,80
2023-04-01T00:27:34.488Z,80
2023-04-01T00:27:55.640Z,80
2023-04-01T00:28:27.337Z,80
2023-04-01T00:28:59.373Z,80
2023-04-01T00:29:31.362Z,80
2023-04-01T00:30:04.648Z,80
2023-04-01T00:30:35.481Z,80
2023-04-01T00:31:07.507Z,80
2023-04-01T00:31:34.509Z,80
2023-04-01T00:31:55.415Z,80
2023-04-01T00:32:27.408Z,80
2023-04-01T00:32:59.376Z,80
2023-04-01T00:33:31.411Z,80
2023-04-01T00:34:04.231Z,80
2023-04-01T00:34:36.166Z,80
2023-04-01T00:35:07.675Z,80
2023-04-01T00:35:34.653Z,80
2023-04-01T00:35:55.735Z,80
2023-04-01T00:36:27.405Z,80
2023-04-01T00:36:59.343Z,80
2023-04-01T00:37:31.359Z,80
2023-04-01T00:38:04.015Z,80
2023-04-01T00:38:37.457Z,80
2023-04-01T00:39:07.396Z,80
2023-04-01T00:39:34.477Z,80
2023-04-01T00:39:55.449Z,80
2023-04-01T00:40:27.871Z,80
2023-04-01T00:41:00.325Z,80
2023-04-01T00:41:31.939Z,80
2023-04-01T00:42:04.167Z,80
2023-04-01T00:42:35.429Z,80
2023-04-01T00:43:07.428Z,80
2023-04-01T00:43:34.649Z,80
2023-04-01T00:43:55.522Z,81
2023-04-01T00:44:27.380Z,81
2023-04-01T00:45:00.054Z,81
2023-04-01T00:45:32.431Z,80
2023-04-01T00:46:05.371Z,80
2023-04-01T00:46:35.524Z,80
2023-04-01T00:47:07.545Z,81
2023-04-01T00:47:34.655Z,81
2023-04-01T00:47:55.720Z,80
2023-04-01T00:48:27.552Z,80
2023-04-01T00:48:59.850Z,81
2023-04-01T00:49:31.636Z,81
2023-04-01T00:50:05.715Z,80
2023-04-01T00:50:36.233Z,80
2023-04-01T00:51:07.470Z,80
2023-04-01T00:51:34.772Z,80
2023-04-01T00:51:56.020Z,80
2023-04-01T00:52:27.648Z,80
2023-04-01T00:52:59.606Z,80
2023-04-01T00:53:31.378Z,80
2023-04-01T00:54:04.134Z,80
2023-04-01T00:54:35.442Z,80
2023-04-01T00:55:08.155Z,80
2023-04-01T00:55:34.601Z,80
2023-04-01T00:55:55.726Z,79
2023-04-01T00:56:27.410Z,79
2023-04-01T00:57:00.281Z,79
2023-04-01T00:57:32.022Z,79
2023-04-01T00:58:04.123Z,79
2023-04-01T00:58:35.413Z,79
2023-04-01T00:59:07.418Z,79
2023-04-01T00:59:34.517Z,79
2023-04-01T00:59:55.467Z,79
2023-04-01T01:00:27.972Z,79
2023-04-01T01:00:59.569Z,80
2023-04-01T01:01:31.637Z,80
2023-04-01T01:02:04.158Z,80
2023-04-01T01:02:35.627Z,80
2023-04-01T01:03:07.423Z,79
2023-04-01T01:03:34.512Z,80
2023-04-01T01:03:55.476Z,79
2023-04-01T01:04:27.556Z,79
2023-04-01T01:05:00.613Z,79
2023-04-01T01:05:34.089Z,79
2023-04-01T01:06:04.296Z,79
2023-04-01T01:06:35.424Z,79
2023-04-01T01:07:07.408Z,79
2023-04-01T01:07:34.534Z,79
2023-04-01T01:07:55.494Z,79
2023-04-01T01:08:27.629Z,80
2023-04-01T01:08:59.484Z,80
2023-04-01T01:09:31.371Z,80
2023-04-01T01:10:04.465Z,80
2023-04-01T01:10:35.398Z,80
2023-04-01T01:11:07.495Z,80
2023-04-01T01:11:40.911Z,80
2023-04-01T01:11:55.456Z,81
2023-04-01T01:12:27.391Z,81
2023-04-01T01:12:59.439Z,81
2023-04-01T01:13:31.377Z,81
2023-04-01T01:14:04.191Z,81
2023-04-01T01:14:36.174Z,81
2023-04-01T01:15:08.047Z,81
2023-04-01T01:15:34.507Z,81
2023-04-01T01:15:55.709Z,81
2023-04-01T01:16:27.412Z,81
2023-04-01T01:16:59.397Z,80
2023-04-01T01:17:31.805Z,80
2023-04-01T01:18:04.142Z,80
2023-04-01T01:18:35.406Z,80
2023-04-01T01:19:07.368Z,80
2023-04-01T01:19:34.946Z,81
2023-04-01T01:19:55.415Z,81
2023-04-01T01:20:27.766Z,81
2023-04-01T01:21:00.414Z,81
2023-04-01T01:21:31.454Z,80
2023-04-01T01:22:04.084Z,80
2023-04-01T01:22:35.396Z,80
2023-04-01T01:23:07.514Z,80
2023-04-01T01:23:34.703Z,80
2023-04-01T01:23:55.434Z,80
2023-04-01T01:24:27.384Z,80
2023-04-01T01:24:59.392Z,80
2023-04-01T01:25:31.874Z,80
2023-04-01T01:26:04.184Z,80
2023-04-01T01:26:35.969Z,80
2023-04-01T01:27:07.438Z,80
2023-04-01T01:27:34.537Z,79
2023-04-01T01:27:55.452Z,79
2023-04-01T01:28:27.374Z,79
2023-04-01T01:28:59.385Z,79
2023-04-01T01:29:31.470Z,79
2023-04-01T01:30:04.942Z,79
2023-04-01T01:30:37.378Z,79
2023-04-01T01:31:07.436Z,80
2023-04-01T01:31:34.514Z,80
2023-04-01T01:31:55.497Z,80
2023-04-01T01:32:27.544Z,80
2023-04-01T01:32:59.430Z,80
2023-04-01T01:33:31.457Z,80
2023-04-01T01:34:04.132Z,81
2023-04-01T01:34:35.352Z,81
2023-04-01T01:35:07.701Z,80
2023-04-01T01:35:34.741Z,80
2023-04-01T01:35:55.677Z,80
2023-04-01T01:36:27.453Z,80
2023-04-01T01:37:00.055Z,79
2023-04-01T01:37:31.368Z,79
2023-04-01T01:38:04.057Z,80
2023-04-01T01:38:35.370Z,80
2023-04-01T01:39:07.374Z,80
2023-04-01T01:39:34.482Z,80
2023-04-01T01:39:55.392Z,80
2023-04-01T01:40:27.683Z,80
2023-04-01T01:40:59.604Z,80
2023-04-01T01:41:31.355Z,80
2023-04-01T01:42:04.003Z,79
2023-04-01T01:42:35.335Z,79
2023-04-01T01:43:07.390Z,79
2023-04-01T01:43:34.477Z,79
2023-04-01T01:43:55.386Z,79
2023-04-01T01:44:27.361Z,79
2023-04-01T01:44:59.369Z,79
2023-04-01T01:45:32.118Z,79
2023-04-01T01:46:04.390Z,79
2023-04-01T01:46:36.266Z,79
2023-04-01T01:47:07.385Z,79
2023-04-01T01:47:34.743Z,79
2023-04-01T01:47:55.489Z,79
2023-04-01T01:48:27.382Z,79
2023-04-01T01:48:59.356Z,79
2023-04-01T01:49:31.358Z,79
2023-04-01T01:50:04.284Z,79
2023-04-01T01:50:35.476Z,80
2023-04-01T01:51:07.829Z,80
2023-04-01T01:51:35.006Z,80
2023-04-01T01:51:55.769Z,80
2023-04-01T01:52:27.385Z,80
2023-04-01T01:53:00.368Z,80
2023-04-01T01:53:31.388Z,80
2023-04-01T01:54:04.013Z,80
2023-04-01T01:54:35.368Z,80
2023-04-01T01:55:07.692Z,81
2023-04-01T01:55:34.695Z,81
2023-04-01T01:55:55.625Z,81
2023-04-01T01:56:27.364Z,81
2023-04-01T01:56:59.380Z,81
2023-04-01T01:57:31.603Z,81
2023-04-01T01:58:04.016Z,81
2023-04-01T01:58:35.334Z,81
2023-04-01T01:59:07.451Z,81
2023-04-01T01:59:34.480Z,81
2023-04-01T01:59:55.406Z,80
2023-04-01T02:00:27.899Z,81
2023-04-01T02:00:59.440Z,81
2023-04-01T02:01:31.443Z,81
2023-04-01T02:02:04.126Z,81
2023-04-01T02:02:36.059Z,81
2023-04-01T02:03:07.517Z,81
2023-04-01T02:03:34.910Z,81
2023-04-01T02:03:55.360Z,81
2023-04-01T02:04:27.411Z,81
2023-04-01T02:04:59.387Z,81
2023-04-01T02:05:31.916Z,81
2023-04-01T02:06:03.948Z,81
2023-04-01T02:06:35.351Z,82
2023-04-01T02:07:07.666Z,82
2023-04-01T02:07:34.485Z,82
2023-04-01T02:07:55.425Z,82
2023-04-01T02:08:27.477Z,82
2023-04-01T02:09:02.019Z,82
2023-04-01T02:09:31.489Z,81
2023-04-01T02:10:04.284Z,81
2023-04-01T02:10:35.361Z,82
2023-04-01T02:11:07.462Z,82
2023-04-01T02:11:34.506Z,81
2023-04-01T02:11:55.363Z,81
2023-04-01T02:12:27.337Z,81
2023-04-01T02:12:59.386Z,82
2023-04-01T02:13:31.672Z,81
2023-04-01T02:14:03.997Z,82
2023-04-01T02:14:35.328Z,82
2023-04-01T02:15:08.077Z,81
2023-04-01T02:15:34.827Z,81
2023-04-01T02:15:55.667Z,81
2023-04-01T02:16:27.509Z,81
2023-04-01T02:16:59.353Z,81
2023-04-01T02:17:31.478Z,81
2023-04-01T02:18:04.114Z,81
2023-04-01T02:18:36.569Z,81
2023-04-01T02:19:07.509Z,81
2023-04-01T02:19:34.488Z,81
2023-04-01T02:19:55.368Z,81
2023-04-01T02:20:27.596Z,81
2023-04-01T02:20:59.346Z,81
2023-04-01T02:21:31.313Z,81
2023-04-01T02:22:04.006Z,81
2023-04-01T02:22:35.732Z,81
2023-04-01T02:23:07.309Z,81
2023-04-01T02:23:34.454Z,81
2023-04-01T02:23:55.345Z,81
2023-04-01T02:24:27.443Z,81
2023-04-01T02:25:00.539Z,81
2023-04-01T02:25:31.771Z,80
2023-04-01T02:26:04.022Z,81
2023-04-01T02:26:35.359Z,81
2023-04-01T02:27:07.365Z,80
2023-04-01T02:27:34.576Z,80
2023-04-01T02:27:55.351Z,80
2023-04-01T02:28:27.320Z,80
2023-04-01T02:28:59.331Z,79
2023-04-01T02:29:31.323Z,79
2023-04-01T02:30:04.852Z,80
2023-04-01T02:30:35.401Z,79
2023-04-01T02:31:07.367Z,80
2023-04-01T02:31:34.513Z,80
2023-04-01T02:31:55.417Z,80
2023-04-01T02:32:27.354Z,80
2023-04-01T02:32:59.687Z,80
2023-04-01T02:33:31.338Z,80
2023-04-01T02:34:04.002Z,80
2023-04-01T02:34:36.173Z,80
2023-04-01T02:35:07.674Z,80
2023-04-01T02:35:34.785Z,80
2023-04-01T02:35:55.620Z,80
2023-04-01T02:36:27.370Z,80
2023-04-01T02:36:59.527Z,80
2023-04-01T02:37:32.810Z,80
2023-04-01T02:38:03.984Z,80
2023-04-01T02:38:35.907Z,80
2023-04-01T02:39:07.311Z,80
2023-04-01T02:39:34.496Z,80
2023-04-01T02:39:55.415Z,80
2023-04-01T02:40:27.650Z,80
2023-04-01T02:41:00.597Z,80
2023-04-01T02:41:31.357Z,80
2023-04-01T02:42:03.972Z,80
2023-04-01T02:42:35.670Z,80
2023-04-01T02:43:07.296Z,79
2023-04-01T02:43:34.524Z,79
2023-04-01T02:43:55.380Z,80
2023-04-01T02:44:27.500Z,80
2023-04-01T02:44:59.365Z,80
2023-04-01T02:45:32.180Z,80
2023-04-01T02:46:04.125Z,80
2023-04-01T02:46:35.330Z,80
2023-04-01T02:47:07.376Z,80
2023-04-01T02:47:34.568Z,80
2023-04-01T02:47:55.413Z,80
2023-04-01T02:48:27.354Z,80
2023-04-01T02:48:59.366Z,80
2023-04-01T02:49:31.368Z,80
2023-04-01T02:50:04.256Z,80
2023-04-01T02:50:36.092Z,80
2023-04-01T02:51:07.377Z,80
2023-04-01T02:51:34.522Z,79
2023-04-01T02:51:55.347Z,80
2023-04-01T02:52:27.365Z,80
2023-04-01T02:52:59.341Z,80
2023-04-01T02:53:31.333Z,80
2023-04-01T02:54:03.921Z,80
2023-04-01T02:54:35.348Z,80
2023-04-01T02:55:07.850Z,80
2023-04-01T02:55:34.872Z,80
2023-04-01T02:55:55.586Z,80
2023-04-01T02:56:27.374Z,80
2023-04-01T02:57:00.209Z,80
2023-04-01T02:57:31.409Z,80
2023-04-01T02:58:03.910Z,80
2023-04-01T02:58:35.335Z,80
2023-04-01T02:59:07.349Z,80
2023-04-01T02:59:34.582Z,80
2023-04-01T02:59:55.371Z,80
2023-04-01T03:00:27.974Z,80
2023-04-01T03:00:59.405Z,80
2023-04-01T03:01:31.460Z,79
2023-04-01T03:02:04.018Z,79
2023-04-01T03:02:35.619Z,79
2023-04-01T03:03:07.607Z,79
2023-04-01T03:03:34.633Z,79
2023-04-01T03:03:55.424Z,79
2023-04-01T03:04:27.361Z,79
2023-04-01T03:05:00.086Z,79
2023-04-01T03:05:31.997Z,79
2023-04-01T03:06:04.001Z,79
2023-04-01T03:06:35.312Z,79
2023-04-01T03:07:07.394Z,79
2023-04-01T03:07:34.551Z,79
2023-04-01T03:07:55.454Z,79
2023-04-01T03:08:27.378Z,79
2023-04-01T03:08:59.381Z,79
2023-04-01T03:09:31.326Z,79
2023-04-01T03:10:04.248Z,79
2023-04-01T03:10:35.976Z,79
2023-04-01T03:11:07.805Z,79
2023-04-01T03:11:34.543Z,78
2023-04-01T03:11:55.507Z,79
2023-04-01T03:12:27.439Z,79
2023-04-01T03:12:59.358Z,79
2023-04-01T03:13:31.342Z,79
2023-04-01T03:14:03.978Z,79
2023-04-01T03:14:37.063Z,79
2023-04-01T03:15:11.292Z,79
2023-04-01T03:15:34.805Z,78
2023-04-01T03:15:55.608Z,79
2023-04-01T03:16:27.661Z,79
2023-04-01T03:16:59.414Z,79
2023-04-01T03:17:31.343Z,78
2023-04-01T03:18:04.052Z,78
2023-04-01T03:18:35.730Z,78
2023-04-01T03:19:07.354Z,79
2023-04-01T03:19:34.565Z,79
2023-04-01T03:19:55.409Z,79
2023-04-01T03:20:27.664Z,79
2023-04-01T03:21:00.170Z,79
2023-04-01T03:21:31.333Z,79
2023-04-01T03:22:03.944Z,79
2023-04-01T03:22:35.837Z,79
2023-04-01T03:23:07.556Z,79
2023-04-01T03:23:34.670Z,79
2023-04-01T03:23:55.355Z,79
2023-04-01T03:24:27.355Z,79
2023-04-01T03:24:59.588Z,79
2023-04-01T03:25:31.829Z,79
2023-04-01T03:26:03.971Z,80
2023-04-01T03:26:35.306Z,79
2023-04-01T03:27:07.344Z,79
2023-04-01T03:27:34.551Z,79
2023-04-01T03:27:55.334Z,79
2023-04-01T03:28:27.402Z,79
2023-04-01T03:28:59.342Z,79
2023-04-01T03:29:31.324Z,79
2023-04-01T03:30:04.511Z,79
2023-04-01T03:30:38.225Z,80
2023-04-01T03:31:07.418Z,80
2023-04-01T03:31:34.657Z,80
2023-04-01T03:31:55.368Z,79
2023-04-01T03:32:27.395Z,80
2023-04-01T03:32:59.358Z,80
2023-04-01T03:33:31.290Z,80
2023-04-01T03:34:03.970Z,80
2023-04-01T03:34:35.292Z,80
2023-04-01T03:35:07.656Z,80
2023-04-01T03:35:34.831Z,80
2023-04-01T03:35:55.588Z,80
2023-04-01T03:36:27.395Z,79
2023-04-01T03:37:00.131Z,79
2023-04-01T03:37:31.310Z,80
2023-04-01T03:38:03.931Z,80
2023-04-01T03:38:35.296Z,80
2023-04-01T03:39:07.362Z,80
2023-04-01T03:39:34.809Z,80
2023-04-01T03:39:55.369Z,80
2023-04-01T03:40:27.698Z,79
2023-04-01T03:40:59.327Z,80
2023-04-01T03:41:31.325Z,80
2023-04-01T03:42:03.868Z,80
2023-04-01T03:42:35.304Z,80
2023-04-01T03:43:07.378Z,80
2023-04-01T03:43:34.672Z,80
2023-04-01T03:43:55.381Z,80
2023-04-01T03:44:27.394Z,80
2023-04-01T03:44:59.352Z,80
2023-04-01T03:45:32.077Z,80
2023-04-01T03:46:04.222Z,80
2023-04-01T03:46:36.266Z,80
2023-04-01T03:47:07.294Z,80
2023-04-01T03:47:34.705Z,80
2023-04-01T03:47:55.356Z,80
2023-04-01T03:48:27.377Z,80
2023-04-01T03:48:59.313Z,80
2023-04-01T03:49:31.278Z,80
2023-04-01T03:50:04.197Z,80
2023-04-01T03:50:35.279Z,80
2023-04-01T03:51:07.286Z,80
2023-04-01T03:51:34.784Z,80
2023-04-01T03:51:55.582Z,80
2023-04-01T03:52:27.396Z,81
2023-04-01T03:53:01.083Z,80
2023-04-01T03:53:31.286Z,80
2023-04-01T03:54:03.987Z,80
2023-04-01T03:54:35.388Z,80
2023-04-01T03:55:07.667Z,80
2023-04-01T03:55:34.885Z,80
2023-04-01T03:55:55.622Z,80
2023-04-01T03:56:27.509Z,80
2023-04-01T03:56:59.374Z,80
2023-04-01T03:57:31.551Z,80
2023-04-01T03:58:04.112Z,80
2023-04-01T03:58:35.283Z,80
2023-04-01T03:59:07.370Z,80
2023-04-01T03:59:34.636Z,80
2023-04-01T03:59:55.341Z,80
2023-04-01T04:00:27.910Z,80
2023-04-01T04:00:59.387Z,80
2023-04-01T04:01:31.307Z,80
2023-04-01T04:02:03.181Z,80
2023-04-01T04:02:34.969Z,80
2023-04-01T04:03:06.854Z,79
2023-04-01T04:03:33.919Z,79
2023-04-01T04:03:55.132Z,79
2023-04-01T04:04:26.845Z,79
2023-04-01T04:04:59.669Z,80
2023-04-01T04:05:31.412Z,79
2023-04-01T04:06:02.778Z,79
2023-04-01T04:06:37.271Z,79
2023-04-01T04:07:07.542Z,79
2023-04-01T04:07:34.577Z,80
2023-04-01T04:07:55.321Z,80
2023-04-01T04:08:27.293Z,80
2023-04-01T04:08:59.346Z,79
2023-04-01T04:09:31.364Z,79
2023-04-01T04:10:03.891Z,79
2023-04-01T04:10:35.734Z,80
2023-04-01T04:11:07.318Z,79
2023-04-01T04:11:34.565Z,80
2023-04-01T04:11:55.295Z,79
2023-04-01T04:12:27.343Z,80
2023-04-01T04:12:59.342Z,80
2023-04-01T04:13:31.334Z,80
2023-04-01T04:14:03.594Z,80
2023-04-01T04:14:36.209Z,80
2023-04-01T04:15:07.931Z,79
2023-04-01T04:15:34.622Z,79
2023-04-01T04:15:55.606Z,79
2023-04-01T04:16:27.420Z,79
2023-04-01T04:16:59.654Z,80
2023-04-01T04:17:31.369Z,79
2023-04-01T04:18:03.357Z,79
2023-04-01T04:18:35.328Z,80
2023-04-01T04:19:07.308Z,79
2023-04-01T04:19:34.424Z,79
2023-04-01T04:19:55.315Z,79
2023-04-01T04:20:27.595Z,79
2023-04-01T04:21:00.816Z,79
2023-04-01T04:21:31.321Z,79
2023-04-01T04:22:03.313Z,79
2023-04-01T04:22:35.312Z,79
2023-04-01T04:23:07.332Z,79
2023-04-01T04:23:34.414Z,79
2023-04-01T04:23:55.309Z,79
2023-04-01T04:24:27.322Z,80
2023-04-01T04:24:59.377Z,79
2023-04-01T04:25:31.959Z,80
2023-04-01T04:26:03.339Z,80
2023-04-01T04:26:35.318Z,80
2023-04-01T04:27:07.353Z,80
2023-04-01T04:27:34.371Z,80
2023-04-01T04:27:55.321Z,79
2023-04-01T04:28:27.287Z,79
2023-04-01T04:28:59.354Z,80
2023-04-01T04:29:31.354Z,79
2023-04-01T04:30:04.107Z,80
2023-04-01T04:30:37.468Z,80
2023-04-01T04:31:07.447Z,80
2023-04-01T04:31:34.442Z,80
2023-04-01T04:31:55.373Z,80
2023-04-01T04:32:28.919Z,80
2023-04-01T04:32:59.411Z,80
2023-04-01T04:33:31.348Z,80
2023-04-01T04:34:03.331Z,80
2023-04-01T04:34:35.298Z,80
2023-04-01T04:35:07.724Z,80
2023-04-01T04:35:35.212Z,80
2023-04-01T04:35:55.530Z,80
2023-04-01T04:36:27.308Z,80
2023-04-01T04:37:00.843Z,80
2023-04-01T04:37:31.399Z,80
2023-04-01T04:38:03.333Z,80
2023-04-01T04:38:35.278Z,80
2023-04-01T04:39:07.320Z,80
2023-04-01T04:39:34.364Z,80
2023-04-01T04:39:55.315Z,80
2023-04-01T04:40:27.584Z,80
2023-04-01T04:40:59.445Z,80
2023-04-01T04:41:31.343Z,80
2023-04-01T04:42:03.345Z,80
2023-04-01T04:42:35.478Z,80
2023-04-01T04:43:07.370Z,80
2023-04-01T04:43:34.362Z,80
2023-04-01T04:43:55.325Z,80
2023-04-01T04:44:27.276Z,80
2023-04-01T04:44:59.348Z,80
2023-04-01T04:45:32.091Z,80
2023-04-01T04:46:03.666Z,80
2023-04-01T04:46:36.342Z,80
2023-04-01T04:47:07.421Z,80
2023-04-01T04:47:34.379Z,80
2023-04-01T04:47:55.357Z,80
2023-04-01T04:48:27.329Z,80
2023-04-01T04:48:59.334Z,80
2023-04-01T04:49:31.367Z,80
2023-04-01T04:50:03.835Z,80
2023-04-01T04:50:35.309Z,80
2023-04-01T04:51:07.357Z,80
2023-04-01T04:51:34.396Z,80
2023-04-01T04:51:55.279Z,80
2023-04-01T04:52:27.283Z,80
2023-04-01T04:53:00.686Z,80
2023-04-01T04:53:31.393Z,80
2023-04-01T04:54:03.322Z,80
2023-04-01T04:54:35.302Z,80
2023-04-01T04:55:07.889Z,80
2023-04-01T04:55:35.154Z,80
2023-04-01T04:55:55.619Z,80
2023-04-01T04:56:27.335Z,80
2023-04-01T04:56:59.419Z,80
2023-04-01T04:57:31.572Z,80
2023-04-01T04:58:03.350Z,80
2023-04-01T04:58:35.651Z,80
2023-04-01T04:59:07.389Z,80
2023-04-01T04:59:34.387Z,80
2023-04-01T04:59:55.293Z,80
2023-04-01T05:00:27.816Z,80
2023-04-01T05:00:59.378Z,80
2023-04-01T05:01:31.392Z,80
2023-04-01T05:02:03.350Z,80
2023-04-01T05:02:36.170Z,80
2023-04-01T05:03:07.510Z,80
2023-04-01T05:03:34.523Z,80
2023-04-01T05:03:55.302Z,80
2023-04-01T05:04:27.308Z,80
2023-04-01T05:04:59.367Z,80
2023-04-01T05:05:31.982Z,80
2023-04-01T05:06:03.294Z,81
2023-04-01T05:06:35.294Z,81
2023-04-01T05:07:07.342Z,81
2023-04-01T05:07:34.774Z,81
2023-04-01T05:07:55.301Z,81
2023-04-01T05:08:27.288Z,81
2023-04-01T05:09:01.068Z,80
2023-04-01T05:09:31.401Z,81
2023-04-01T05:10:04.057Z,81
2023-04-01T05:10:35.267Z,81
2023-04-01T05:11:07.677Z,81
2023-04-01T05:11:34.542Z,81
2023-04-01T05:11:55.388Z,81
2023-04-01T05:12:27.372Z,81
2023-04-01T05:12:59.497Z,81
2023-04-01T05:13:31.514Z,81
2023-04-01T05:14:03.502Z,81
2023-04-01T05:14:35.407Z,80
2023-04-01T05:15:08.017Z,80
2023-04-01T05:15:35.076Z,80
2023-04-01T05:15:55.615Z,80
2023-04-01T05:16:27.400Z,80
2023-04-01T05:16:59.474Z,80
2023-04-01T05:17:31.520Z,80
2023-04-01T05:18:03.476Z,80
2023-04-01T05:18:36.410Z,80
2023-04-01T05:19:07.463Z,80
2023-04-01T05:19:34.479Z,80
2023-04-01T05:19:55.408Z,80
2023-04-01T05:20:27.739Z,80
2023-04-01T05:20:59.431Z,80
2023-04-01T05:21:31.512Z,80
2023-04-01T05:22:03.460Z,80
2023-04-01T05:22:35.400Z,80
2023-04-01T05:23:07.381Z,80
2023-04-01T05:23:34.466Z,80
2023-04-01T05:23:55.401Z,80
2023-04-01T05:24:27.425Z,80
2023-04-01T05:25:01.140Z,80
2023-04-01T05:25:31.820Z,81
2023-04-01T05:26:03.453Z,81
2023-04-01T05:26:35.445Z,81
2023-04-01T05:27:07.390Z,80
2023-04-01T05:27:34.450Z,80
2023-04-01T05:27:55.436Z,80
2023-04-01T05:28:27.423Z,80
2023-04-01T05:28:59.448Z,81
2023-04-01T05:29:31.473Z,80
2023-04-01T05:30:04.339Z,80
2023-04-01T05:30:35.468Z,80
2023-04-01T05:31:07.488Z,80
2023-04-01T05:31:34.551Z,81
2023-04-01T05:31:55.382Z,81
2023-04-01T05:32:27.416Z,81
2023-04-01T05:32:59.502Z,81
2023-04-01T05:33:31.645Z,81
2023-04-01T05:34:03.439Z,81
2023-04-01T05:34:36.240Z,81
2023-04-01T05:35:07.744Z,81
2023-04-01T05:35:34.678Z,81
2023-04-01T05:35:55.699Z,81
2023-04-01T05:36:27.421Z,81
2023-04-01T05:36:59.420Z,81
2023-04-01T05:37:31.516Z,81
2023-04-01T05:38:03.421Z,81
2023-04-01T05:38:35.420Z,81
2023-04-01T05:39:07.416Z,81
2023-04-01T05:39:34.498Z,81
2023-04-01T05:39:55.414Z,81
2023-04-01T05:40:27.649Z,81
2023-04-01T05:41:01.738Z,81
2023-04-01T05:41:31.534Z,82
2023-04-01T05:42:03.427Z,82
2023-04-01T05:42:36.906Z,82
2023-04-01T05:43:07.336Z,82
2023-04-01T05:43:34.476Z,82
2023-04-01T05:43:55.369Z,82
2023-04-01T05:44:27.422Z,82
2023-04-01T05:44:59.524Z,82
2023-04-01T05:45:32.363Z,82
2023-04-01T05:46:03.908Z,82
2023-04-01T05:46:35.828Z,82
2023-04-01T05:47:07.431Z,82
2023-04-01T05:47:34.507Z,82
2023-04-01T05:47:55.450Z,82
2023-04-01T05:48:27.394Z,82
2023-04-01T05:48:59.515Z,83
2023-04-01T05:49:31.565Z,83
2023-04-01T05:50:04.096Z,83
2023-04-01T05:50:37.225Z,83
2023-04-01T05:51:07.489Z,83
2023-04-01T05:51:34.501Z,83
2023-04-01T05:51:55.458Z,84
2023-04-01T05:52:27.415Z,84
2023-04-01T05:52:59.463Z,84
2023-04-01T05:53:31.536Z,84
2023-04-01T05:54:03.472Z,84
2023-04-01T05:54:35.376Z,84
2023-04-01T05:55:07.760Z,84
2023-04-01T05:55:34.949Z,84
2023-04-01T05:55:55.607Z,84
2023-04-01T05:56:27.404Z,84
2023-04-01T05:57:00.885Z,84
2023-04-01T05:57:31.619Z,84
2023-04-01T05:58:03.444Z,84
2023-04-01T05:58:35.706Z,84
2023-04-01T05:59:07.343Z,85
2023-04-01T05:59:34.485Z,85
2023-04-01T05:59:55.434Z,84
2023-04-01T06:00:28.238Z,84
2023-04-01T06:01:09.357Z,84
2023-04-01T06:01:31.561Z,84
2023-04-01T06:02:03.467Z,84
2023-04-01T06:02:35.465Z,85
2023-04-01T06:03:07.564Z,85
2023-04-01T06:03:34.566Z,85
2023-04-01T06:03:55.616Z,85
2023-04-01T06:04:27.510Z,85
2023-04-01T06:05:01.394Z,85
2023-04-01T06:05:31.922Z,85
2023-04-01T06:06:03.422Z,85
2023-04-01T06:06:35.458Z,85
2023-04-01T06:07:07.370Z,85
2023-04-01T06:07:34.504Z,85
2023-04-01T06:07:55.406Z,85
2023-04-01T06:08:27.443Z,85
2023-04-01T06:08:59.413Z,85
2023-04-01T06:09:31.634Z,85
2023-04-01T06:10:03.940Z,85
2023-04-01T06:10:35.829Z,85
2023-04-01T06:11:07.585Z,85
2023-04-01T06:11:34.470Z,85
2023-04-01T06:12:11.428Z,86
2023-04-01T06:12:34.475Z,86
2023-04-01T06:12:59.447Z,86
2023-04-01T06:13:31.662Z,86
2023-04-01T06:14:03.446Z,86
2023-04-01T06:14:36.141Z,86
2023-04-01T06:15:07.938Z,85
2023-04-01T06:15:34.727Z,85
2023-04-01T06:15:55.753Z,85
2023-04-01T06:16:27.513Z,85
2023-04-01T06:16:59.472Z,86
2023-04-01T06:17:31.751Z,86
2023-04-01T06:18:03.626Z,86
2023-04-01T06:18:35.401Z,86
2023-04-01T06:19:07.474Z,86
2023-04-01T06:19:34.537Z,86
2023-04-01T06:19:55.481Z,86
2023-04-01T06:20:27.799Z,86
2023-04-01T06:21:00.936Z,86
2023-04-01T06:21:31.680Z,86
2023-04-01T06:22:03.521Z,86
2023-04-01T06:22:35.412Z,86
2023-04-01T06:23:07.398Z,87
2023-04-01T06:23:35.452Z,87
2023-04-01T06:23:55.481Z,87
2023-04-01T06:24:27.435Z,87
2023-04-01T06:24:59.399Z,87
2023-04-01T06:25:32.345Z,87
2023-04-01T06:26:03.775Z,87
2023-04-01T06:26:35.383Z,86
2023-04-01T06:27:07.389Z,87
2023-04-01T06:27:34.489Z,87
2023-04-01T06:27:55.362Z,87
2023-04-01T06:28:27.468Z,87
2023-04-01T06:28:59.605Z,87
2023-04-01T06:29:31.651Z,87
2023-04-01T06:30:04.326Z,87
2023-04-01T06:30:36.273Z,87
2023-04-01T06:31:23.594Z,87
2023-04-01T06:31:40.965Z,87
2023-04-01T06:32:11.766Z,87
2023-04-01T06:32:34.592Z,87
2023-04-01T06:33:16.144Z,87
2023-04-01T06:33:37.777Z,87
2023-04-01T06:34:03.518Z,87
2023-04-01T06:34:35.457Z,87
2023-04-01T06:35:07.783Z,87
2023-04-01T06:35:34.796Z,87
2023-04-01T06:35:55.696Z,87
2023-04-01T06:36:27.544Z,87
2023-04-01T06:37:16.745Z,88
2023-04-01T06:37:37.069Z,88
2023-04-01T06:38:03.473Z,88
2023-04-01T06:38:35.438Z,88
2023-04-01T06:39:08.948Z,88
2023-04-01T06:39:34.511Z,88
2023-04-01T06:39:55.369Z,87
2023-04-01T06:40:28.640Z,88
2023-04-01T06:40:59.555Z,88
2023-04-01T06:41:31.742Z,88
2023-04-01T06:42:03.462Z,88
2023-04-01T06:42:41.292Z,88
2023-04-01T06:43:07.435Z,88
2023-04-01T06:43:36.061Z,88
2023-04-01T06:43:55.753Z,88
2023-04-01T06:44:27.408Z,88
2023-04-01T06:44:59.370Z,89
2023-04-01T06:45:32.688Z,89
2023-04-01T06:46:03.663Z,89
2023-04-01T06:46:41.811Z,89
2023-04-01T06:47:07.434Z,89
2023-04-01T06:47:35.310Z,89
2023-04-01T06:47:55.552Z,88
2023-04-01T06:48:27.447Z,88
2023-04-01T06:48:59.491Z,88
2023-04-01T06:49:31.792Z,88
2023-04-01T06:50:04.033Z,88
2023-04-01T06:50:35.449Z,89
2023-04-01T06:51:07.441Z,88
2023-04-01T06:51:34.546Z,89
2023-04-01T06:51:55.394Z,89
2023-04-01T06:52:34.553Z,88
2023-04-01T06:53:01.237Z,88
2023-04-01T06:53:31.845Z,88
2023-04-01T06:54:03.511Z,88
2023-04-01T06:54:35.444Z,88
2023-04-01T06:55:07.758Z,89
2023-04-01T06:55:34.857Z,89
2023-04-01T06:55:55.731Z,89
2023-04-01T06:56:27.599Z,89
2023-04-01T06:56:59.513Z,89
2023-04-01T06:57:31.914Z,89
2023-04-01T06:58:03.533Z,89
2023-04-01T06:58:35.483Z,89
2023-04-01T06:59:07.468Z,89
2023-04-01T06:59:34.556Z,89
2023-04-01T06:59:55.532Z,89
2023-04-01T07:00:28.037Z,89
2023-04-01T07:00:59.488Z,89
2023-04-01T07:01:31.952Z,89
2023-04-01T07:02:03.555Z,89
2023-04-01T07:02:35.468Z,89
2023-04-01T07:03:07.815Z,89
2023-04-01T07:03:34.541Z,89
2023-04-01T07:03:55.470Z,89
2023-04-01T07:04:27.568Z,89
2023-04-01T07:05:02.823Z,90
2023-04-01T07:05:32.194Z,90
2023-04-01T07:06:03.589Z,89
2023-04-01T07:06:35.868Z,89
2023-04-01T07:07:07.507Z,90
2023-04-01T07:07:34.566Z,90
2023-04-01T07:07:55.419Z,90